sensor_id;sensor_type;location;lat;lon;timestamp;P1;durP1;ratioP1;P2;durP2;ratioP2
81703;SDS011;71117;52.352;4.808;2023-07-31T00:01:51;17.15;;;3.17;;
81703;SDS011;71117;52.352;4.808;2023-07-31T00:04:17;11.93;;;2.90;;
81703;SDS011;71117;52.352;4.808;2023-07-31T00:06:42;10.90;;;2.85;;
81703;SDS011;71117;52.352;4.808;2023-07-31T00:09:07;15.10;;;2.58;;
81703;SDS011;71117;52.352;4.808;2023-07-31T00:11:33;14.82;;;3.08;;
81703;SDS011;71117;52.352;4.808;2023-07-31T00:13:58;8.20;;;3.13;;
81703;SDS011;71117;52.352;4.808;2023-07-31T00:16:24;10.57;;;3.10;;
81703;SDS011;71117;52.352;4.808;2023-07-31T00:18:49;18.15;;;3.33;;
81703;SDS011;71117;52.352;4.808;2023-07-31T00:21:14;10.02;;;2.88;;
81703;SDS011;71117;52.352;4.808;2023-07-31T00:23:40;13.80;;;2.85;;
81703;SDS011;71117;52.352;4.808;2023-07-31T00:26:05;15.35;;;3.42;;
81703;SDS011;71117;52.352;4.808;2023-07-31T00:28:30;10.18;;;2.60;;
81703;SDS011;71117;52.352;4.808;2023-07-31T00:30:56;8.57;;;2.92;;
81703;SDS011;71117;52.352;4.808;2023-07-31T00:33:21;12.27;;;3.60;;
81703;SDS011;71117;52.352;4.808;2023-07-31T00:35:48;14.98;;;4.13;;
81703;SDS011;71117;52.352;4.808;2023-07-31T00:38:13;19.60;;;4.60;;
81703;SDS011;71117;52.352;4.808;2023-07-31T00:40:39;25.75;;;5.45;;
81703;SDS011;71117;52.352;4.808;2023-07-31T00:43:04;18.48;;;4.68;;
81703;SDS011;71117;52.352;4.808;2023-07-31T00:45:30;23.08;;;4.72;;
81703;SDS011;71117;52.352;4.808;2023-07-31T00:47:57;16.85;;;4.10;;
81703;SDS011;71117;52.352;4.808;2023-07-31T00:50:26;23.85;;;4.82;;
81703;SDS011;71117;52.352;4.808;2023-07-31T00:52:53;16.33;;;4.60;;
81703;SDS011;71117;52.352;4.808;2023-07-31T00:55:18;16.88;;;4.22;;
81703;SDS011;71117;52.352;4.808;2023-07-31T00:57:44;25.38;;;4.43;;
81703;SDS011;71117;52.352;4.808;2023-07-31T01:00:10;22.13;;;4.35;;
81703;SDS011;71117;52.352;4.808;2023-07-31T01:02:36;15.88;;;5.03;;
81703;SDS011;71117;52.352;4.808;2023-07-31T01:05:02;14.85;;;4.38;;
81703;SDS011;71117;52.352;4.808;2023-07-31T01:07:35;20.00;;;4.88;;
81703;SDS011;71117;52.352;4.808;2023-07-31T01:10:11;21.67;;;5.00;;
81703;SDS011;71117;52.352;4.808;2023-07-31T01:15:10;17.95;;;4.88;;
81703;SDS011;71117;52.352;4.808;2023-07-31T01:17:40;20.75;;;5.88;;
81703;SDS011;71117;52.352;4.808;2023-07-31T01:20:27;23.08;;;5.35;;
81703;SDS011;71117;52.352;4.808;2023-07-31T01:23:19;21.63;;;5.78;;
81703;SDS011;71117;52.352;4.808;2023-07-31T01:26:13;26.08;;;6.25;;
81703;SDS011;71117;52.352;4.808;2023-07-31T01:28:50;20.75;;;5.78;;
81703;SDS011;71117;52.352;4.808;2023-07-31T01:33:54;22.48;;;6.68;;
81703;SDS011;71117;52.352;4.808;2023-07-31T01:36:22;23.80;;;5.78;;
81703;SDS011;71117;52.352;4.808;2023-07-31T01:38:48;18.50;;;4.72;;
81703;SDS011;71117;52.352;4.808;2023-07-31T01:41:16;29.83;;;6.07;;
81703;SDS011;71117;52.352;4.808;2023-07-31T01:43:45;22.85;;;5.43;;
81703;SDS011;71117;52.352;4.808;2023-07-31T01:46:11;28.70;;;5.90;;
81703;SDS011;71117;52.352;4.808;2023-07-31T01:48:37;29.38;;;6.35;;
81703;SDS011;71117;52.352;4.808;2023-07-31T01:51:02;26.00;;;5.72;;
81703;SDS011;71117;52.352;4.808;2023-07-31T01:53:28;18.58;;;5.10;;
81703;SDS011;71117;52.352;4.808;2023-07-31T01:55:54;35.40;;;7.25;;
81703;SDS011;71117;52.352;4.808;2023-07-31T01:58:19;25.02;;;6.35;;
81703;SDS011;71117;52.352;4.808;2023-07-31T02:00:44;26.08;;;5.65;;
81703;SDS011;71117;52.352;4.808;2023-07-31T02:03:11;22.45;;;5.38;;
81703;SDS011;71117;52.352;4.808;2023-07-31T02:05:36;23.75;;;6.10;;
81703;SDS011;71117;52.352;4.808;2023-07-31T02:08:08;25.70;;;6.82;;
81703;SDS011;71117;52.352;4.808;2023-07-31T02:10:33;17.13;;;4.95;;
81703;SDS011;71117;52.352;4.808;2023-07-31T02:12:59;22.55;;;5.88;;
81703;SDS011;71117;52.352;4.808;2023-07-31T02:15:24;22.70;;;5.75;;
81703;SDS011;71117;52.352;4.808;2023-07-31T02:17:49;18.83;;;5.75;;
81703;SDS011;71117;52.352;4.808;2023-07-31T02:20:15;26.63;;;5.13;;
81703;SDS011;71117;52.352;4.808;2023-07-31T02:22:40;20.63;;;6.28;;
81703;SDS011;71117;52.352;4.808;2023-07-31T02:25:06;24.88;;;5.90;;
81703;SDS011;71117;52.352;4.808;2023-07-31T02:27:32;21.55;;;5.40;;
81703;SDS011;71117;52.352;4.808;2023-07-31T02:29:57;16.80;;;6.35;;
81703;SDS011;71117;52.352;4.808;2023-07-31T02:32:24;17.70;;;6.00;;
81703;SDS011;71117;52.352;4.808;2023-07-31T02:34:49;30.27;;;6.93;;
81703;SDS011;71117;52.352;4.808;2023-07-31T02:37:15;15.73;;;5.32;;
81703;SDS011;71117;52.352;4.808;2023-07-31T02:39:40;24.35;;;5.30;;
81703;SDS011;71117;52.352;4.808;2023-07-31T02:42:06;27.10;;;5.35;;
81703;SDS011;71117;52.352;4.808;2023-07-31T02:44:31;24.00;;;6.00;;
81703;SDS011;71117;52.352;4.808;2023-07-31T02:46:56;21.83;;;5.70;;
81703;SDS011;71117;52.352;4.808;2023-07-31T02:49:22;23.00;;;5.55;;
81703;SDS011;71117;52.352;4.808;2023-07-31T02:51:47;21.15;;;5.07;;
81703;SDS011;71117;52.352;4.808;2023-07-31T02:54:13;25.42;;;6.57;;
81703;SDS011;71117;52.352;4.808;2023-07-31T02:56:38;22.67;;;5.60;;
81703;SDS011;71117;52.352;4.808;2023-07-31T02:59:03;22.15;;;5.60;;
81703;SDS011;71117;52.352;4.808;2023-07-31T03:01:29;22.42;;;5.78;;
81703;SDS011;71117;52.352;4.808;2023-07-31T03:03:54;26.40;;;7.20;;
81703;SDS011;71117;52.352;4.808;2023-07-31T03:06:19;21.38;;;5.78;;
81703;SDS011;71117;52.352;4.808;2023-07-31T03:08:45;23.35;;;5.03;;
81703;SDS011;71117;52.352;4.808;2023-07-31T03:11:10;23.63;;;5.93;;
81703;SDS011;71117;52.352;4.808;2023-07-31T03:13:35;21.15;;;6.10;;
81703;SDS011;71117;52.352;4.808;2023-07-31T03:16:01;23.08;;;6.07;;
81703;SDS011;71117;52.352;4.808;2023-07-31T03:18:26;24.05;;;5.72;;
81703;SDS011;71117;52.352;4.808;2023-07-31T03:20:51;18.45;;;5.32;;
81703;SDS011;71117;52.352;4.808;2023-07-31T03:23:17;19.60;;;4.88;;
81703;SDS011;71117;52.352;4.808;2023-07-31T03:25:54;23.17;;;5.47;;
81703;SDS011;71117;52.352;4.808;2023-07-31T03:28:23;23.88;;;4.90;;
81703;SDS011;71117;52.352;4.808;2023-07-31T03:30:49;20.83;;;5.30;;
81703;SDS011;71117;52.352;4.808;2023-07-31T03:33:14;20.20;;;5.22;;
81703;SDS011;71117;52.352;4.808;2023-07-31T03:35:39;26.00;;;6.00;;
81703;SDS011;71117;52.352;4.808;2023-07-31T03:38:05;19.23;;;5.30;;
81703;SDS011;71117;52.352;4.808;2023-07-31T03:40:30;19.40;;;5.10;;
81703;SDS011;71117;52.352;4.808;2023-07-31T03:42:55;27.95;;;6.97;;
81703;SDS011;71117;52.352;4.808;2023-07-31T03:45:21;34.15;;;6.68;;
81703;SDS011;71117;52.352;4.808;2023-07-31T03:47:46;19.40;;;6.20;;
81703;SDS011;71117;52.352;4.808;2023-07-31T03:50:11;27.70;;;7.03;;
81703;SDS011;71117;52.352;4.808;2023-07-31T03:52:37;29.08;;;6.38;;
81703;SDS011;71117;52.352;4.808;2023-07-31T03:55:02;28.13;;;6.80;;
81703;SDS011;71117;52.352;4.808;2023-07-31T03:57:28;25.85;;;6.32;;
81703;SDS011;71117;52.352;4.808;2023-07-31T03:59:53;22.58;;;5.30;;
81703;SDS011;71117;52.352;4.808;2023-07-31T04:02:19;25.40;;;7.18;;
81703;SDS011;71117;52.352;4.808;2023-07-31T04:04:44;27.30;;;6.95;;
81703;SDS011;71117;52.352;4.808;2023-07-31T04:07:09;22.42;;;5.95;;
81703;SDS011;71117;52.352;4.808;2023-07-31T04:09:35;20.45;;;5.80;;
81703;SDS011;71117;52.352;4.808;2023-07-31T04:12:00;28.75;;;6.47;;
81703;SDS011;71117;52.352;4.808;2023-07-31T04:14:25;28.58;;;7.00;;
81703;SDS011;71117;52.352;4.808;2023-07-31T04:16:51;26.85;;;5.90;;
81703;SDS011;71117;52.352;4.808;2023-07-31T04:19:17;25.55;;;6.32;;
81703;SDS011;71117;52.352;4.808;2023-07-31T04:21:42;29.83;;;6.80;;
81703;SDS011;71117;52.352;4.808;2023-07-31T04:24:08;27.20;;;5.82;;
81703;SDS011;71117;52.352;4.808;2023-07-31T04:26:33;25.25;;;8.00;;
81703;SDS011;71117;52.352;4.808;2023-07-31T04:28:58;21.13;;;5.13;;
81703;SDS011;71117;52.352;4.808;2023-07-31T04:31:24;16.67;;;4.07;;
81703;SDS011;71117;52.352;4.808;2023-07-31T04:33:49;16.90;;;4.60;;
81703;SDS011;71117;52.352;4.808;2023-07-31T04:36:14;13.93;;;3.67;;
81703;SDS011;71117;52.352;4.808;2023-07-31T04:38:40;17.38;;;3.38;;
81703;SDS011;71117;52.352;4.808;2023-07-31T04:41:06;15.65;;;3.05;;
81703;SDS011;71117;52.352;4.808;2023-07-31T04:43:31;12.25;;;3.30;;
81703;SDS011;71117;52.352;4.808;2023-07-31T04:45:57;11.48;;;3.10;;
81703;SDS011;71117;52.352;4.808;2023-07-31T04:48:23;14.77;;;3.25;;
81703;SDS011;71117;52.352;4.808;2023-07-31T04:50:48;14.70;;;2.33;;
81703;SDS011;71117;52.352;4.808;2023-07-31T04:53:14;7.15;;;3.20;;
81703;SDS011;71117;52.352;4.808;2023-07-31T04:55:39;6.40;;;2.40;;
81703;SDS011;71117;52.352;4.808;2023-07-31T04:58:04;8.18;;;1.80;;
81703;SDS011;71117;52.352;4.808;2023-07-31T05:00:30;9.63;;;2.55;;
81703;SDS011;71117;52.352;4.808;2023-07-31T05:02:55;8.38;;;2.10;;
81703;SDS011;71117;52.352;4.808;2023-07-31T05:05:21;5.68;;;2.00;;
81703;SDS011;71117;52.352;4.808;2023-07-31T05:07:46;7.07;;;1.77;;
81703;SDS011;71117;52.352;4.808;2023-07-31T05:10:11;6.07;;;1.65;;
81703;SDS011;71117;52.352;4.808;2023-07-31T05:12:37;5.45;;;1.63;;
81703;SDS011;71117;52.352;4.808;2023-07-31T05:15:02;6.35;;;1.55;;
81703;SDS011;71117;52.352;4.808;2023-07-31T05:17:28;4.70;;;1.35;;
81703;SDS011;71117;52.352;4.808;2023-07-31T05:19:53;5.13;;;1.50;;
81703;SDS011;71117;52.352;4.808;2023-07-31T05:22:19;3.45;;;1.20;;
81703;SDS011;71117;52.352;4.808;2023-07-31T05:24:44;3.17;;;1.20;;
81703;SDS011;71117;52.352;4.808;2023-07-31T05:27:09;5.55;;;1.10;;
81703;SDS011;71117;52.352;4.808;2023-07-31T05:29:35;3.75;;;1.33;;
81703;SDS011;71117;52.352;4.808;2023-07-31T05:32:01;5.13;;;1.20;;
81703;SDS011;71117;52.352;4.808;2023-07-31T05:34:26;3.13;;;0.70;;
81703;SDS011;71117;52.352;4.808;2023-07-31T05:36:51;4.32;;;0.85;;
81703;SDS011;71117;52.352;4.808;2023-07-31T05:39:17;3.88;;;0.70;;
81703;SDS011;71117;52.352;4.808;2023-07-31T05:41:44;1.45;;;0.60;;
81703;SDS011;71117;52.352;4.808;2023-07-31T05:44:10;3.83;;;0.80;;
81703;SDS011;71117;52.352;4.808;2023-07-31T05:46:35;2.80;;;0.60;;
81703;SDS011;71117;52.352;4.808;2023-07-31T05:49:01;1.05;;;0.50;;
81703;SDS011;71117;52.352;4.808;2023-07-31T05:51:26;2.15;;;0.77;;
81703;SDS011;71117;52.352;4.808;2023-07-31T05:53:52;1.50;;;1.00;;
81703;SDS011;71117;52.352;4.808;2023-07-31T05:56:18;2.35;;;0.73;;
81703;SDS011;71117;52.352;4.808;2023-07-31T05:58:43;2.05;;;1.05;;
81703;SDS011;71117;52.352;4.808;2023-07-31T06:01:09;1.70;;;0.80;;
81703;SDS011;71117;52.352;4.808;2023-07-31T06:03:34;2.10;;;0.80;;
81703;SDS011;71117;52.352;4.808;2023-07-31T06:05:59;1.15;;;0.70;;
81703;SDS011;71117;52.352;4.808;2023-07-31T06:08:25;1.20;;;0.90;;
81703;SDS011;71117;52.352;4.808;2023-07-31T06:10:50;1.55;;;0.80;;
81703;SDS011;71117;52.352;4.808;2023-07-31T06:13:17;1.38;;;0.85;;
81703;SDS011;71117;52.352;4.808;2023-07-31T06:15:42;1.77;;;0.88;;
81703;SDS011;71117;52.352;4.808;2023-07-31T06:18:08;2.40;;;0.95;;
81703;SDS011;71117;52.352;4.808;2023-07-31T06:20:33;1.70;;;0.80;;
81703;SDS011;71117;52.352;4.808;2023-07-31T06:22:59;1.60;;;0.90;;
81703;SDS011;71117;52.352;4.808;2023-07-31T06:25:25;1.95;;;1.10;;
81703;SDS011;71117;52.352;4.808;2023-07-31T06:27:50;3.28;;;1.38;;
81703;SDS011;71117;52.352;4.808;2023-07-31T06:30:16;2.63;;;1.00;;
81703;SDS011;71117;52.352;4.808;2023-07-31T06:32:41;1.77;;;0.90;;
81703;SDS011;71117;52.352;4.808;2023-07-31T06:35:07;3.83;;;1.13;;
81703;SDS011;71117;52.352;4.808;2023-07-31T06:37:33;2.22;;;1.00;;
81703;SDS011;71117;52.352;4.808;2023-07-31T06:39:58;2.80;;;1.40;;
81703;SDS011;71117;52.352;4.808;2023-07-31T06:42:24;4.32;;;1.65;;
81703;SDS011;71117;52.352;4.808;2023-07-31T06:44:49;5.85;;;1.30;;
81703;SDS011;71117;52.352;4.808;2023-07-31T06:47:15;2.67;;;1.48;;
81703;SDS011;71117;52.352;4.808;2023-07-31T06:49:40;6.28;;;1.75;;
81703;SDS011;71117;52.352;4.808;2023-07-31T06:52:05;4.05;;;1.23;;
81703;SDS011;71117;52.352;4.808;2023-07-31T06:54:31;5.70;;;1.55;;
81703;SDS011;71117;52.352;4.808;2023-07-31T06:56:56;7.43;;;1.75;;
81703;SDS011;71117;52.352;4.808;2023-07-31T06:59:22;9.35;;;1.80;;
81703;SDS011;71117;52.352;4.808;2023-07-31T07:01:47;4.53;;;1.40;;
81703;SDS011;71117;52.352;4.808;2023-07-31T07:04:13;7.22;;;1.77;;
81703;SDS011;71117;52.352;4.808;2023-07-31T07:06:40;8.75;;;1.23;;
81703;SDS011;71117;52.352;4.808;2023-07-31T07:09:05;7.13;;;1.83;;
81703;SDS011;71117;52.352;4.808;2023-07-31T07:11:31;6.68;;;1.38;;
81703;SDS011;71117;52.352;4.808;2023-07-31T07:13:56;7.18;;;1.60;;
81703;SDS011;71117;52.352;4.808;2023-07-31T07:16:21;6.65;;;1.30;;
81703;SDS011;71117;52.352;4.808;2023-07-31T07:18:47;5.13;;;1.80;;
81703;SDS011;71117;52.352;4.808;2023-07-31T07:21:12;12.10;;;2.10;;
81703;SDS011;71117;52.352;4.808;2023-07-31T07:23:41;10.55;;;1.90;;
81703;SDS011;71117;52.352;4.808;2023-07-31T07:26:07;8.88;;;2.03;;
81703;SDS011;71117;52.352;4.808;2023-07-31T07:28:32;7.80;;;1.73;;
81703;SDS011;71117;52.352;4.808;2023-07-31T07:30:57;6.05;;;1.63;;
81703;SDS011;71117;52.352;4.808;2023-07-31T07:33:23;4.88;;;1.73;;
81703;SDS011;71117;52.352;4.808;2023-07-31T07:35:48;8.50;;;2.25;;
81703;SDS011;71117;52.352;4.808;2023-07-31T07:38:14;12.55;;;3.42;;
81703;SDS011;71117;52.352;4.808;2023-07-31T07:40:44;9.13;;;2.25;;
81703;SDS011;71117;52.352;4.808;2023-07-31T07:43:11;10.40;;;2.30;;
81703;SDS011;71117;52.352;4.808;2023-07-31T07:45:37;10.63;;;2.28;;
81703;SDS011;71117;52.352;4.808;2023-07-31T07:48:02;9.18;;;2.25;;
81703;SDS011;71117;52.352;4.808;2023-07-31T07:50:28;13.88;;;2.72;;
81703;SDS011;71117;52.352;4.808;2023-07-31T07:52:53;6.15;;;2.20;;
81703;SDS011;71117;52.352;4.808;2023-07-31T07:55:18;8.18;;;2.10;;
81703;SDS011;71117;52.352;4.808;2023-07-31T07:57:44;11.23;;;2.17;;
81703;SDS011;71117;52.352;4.808;2023-07-31T08:00:10;10.60;;;2.55;;
81703;SDS011;71117;52.352;4.808;2023-07-31T08:02:36;8.43;;;2.55;;
81703;SDS011;71117;52.352;4.808;2023-07-31T08:05:02;7.50;;;1.92;;
81703;SDS011;71117;52.352;4.808;2023-07-31T08:07:28;10.82;;;1.63;;
81703;SDS011;71117;52.352;4.808;2023-07-31T08:09:53;7.13;;;1.35;;
81703;SDS011;71117;52.352;4.808;2023-07-31T08:12:19;12.15;;;1.85;;
81703;SDS011;71117;52.352;4.808;2023-07-31T08:14:44;11.85;;;2.50;;
81703;SDS011;71117;52.352;4.808;2023-07-31T08:17:09;7.93;;;1.95;;
81703;SDS011;71117;52.352;4.808;2023-07-31T08:19:35;10.13;;;2.20;;
81703;SDS011;71117;52.352;4.808;2023-07-31T08:22:00;11.07;;;2.50;;
81703;SDS011;71117;52.352;4.808;2023-07-31T08:24:25;8.63;;;1.83;;
81703;SDS011;71117;52.352;4.808;2023-07-31T08:26:51;10.25;;;2.60;;
81703;SDS011;71117;52.352;4.808;2023-07-31T08:29:16;6.47;;;1.60;;
81703;SDS011;71117;52.352;4.808;2023-07-31T08:31:41;3.83;;;1.10;;
81703;SDS011;71117;52.352;4.808;2023-07-31T08:34:07;5.18;;;1.23;;
81703;SDS011;71117;52.352;4.808;2023-07-31T08:36:32;6.63;;;1.60;;
81703;SDS011;71117;52.352;4.808;2023-07-31T08:38:57;6.85;;;0.98;;
81703;SDS011;71117;52.352;4.808;2023-07-31T08:41:23;6.60;;;1.35;;
81703;SDS011;71117;52.352;4.808;2023-07-31T08:43:49;6.78;;;1.20;;
81703;SDS011;71117;52.352;4.808;2023-07-31T08:46:16;7.55;;;1.85;;
81703;SDS011;71117;52.352;4.808;2023-07-31T08:48:42;11.27;;;2.72;;
81703;SDS011;71117;52.352;4.808;2023-07-31T08:51:09;8.55;;;1.38;;
81703;SDS011;71117;52.352;4.808;2023-07-31T08:53:34;11.52;;;2.72;;
81703;SDS011;71117;52.352;4.808;2023-07-31T08:56:01;7.07;;;1.95;;
81703;SDS011;71117;52.352;4.808;2023-07-31T08:58:27;7.28;;;1.95;;
81703;SDS011;71117;52.352;4.808;2023-07-31T09:00:56;16.13;;;2.20;;
81703;SDS011;71117;52.352;4.808;2023-07-31T09:03:23;12.20;;;2.25;;
81703;SDS011;71117;52.352;4.808;2023-07-31T09:05:50;14.60;;;2.53;;
81703;SDS011;71117;52.352;4.808;2023-07-31T09:08:20;10.60;;;2.05;;
81703;SDS011;71117;52.352;4.808;2023-07-31T09:10:46;10.70;;;2.33;;
81703;SDS011;71117;52.352;4.808;2023-07-31T09:13:13;12.98;;;2.45;;
81703;SDS011;71117;52.352;4.808;2023-07-31T09:15:39;10.85;;;2.60;;
81703;SDS011;71117;52.352;4.808;2023-07-31T09:18:09;14.95;;;2.63;;
81703;SDS011;71117;52.352;4.808;2023-07-31T09:20:35;14.15;;;2.42;;
81703;SDS011;71117;52.352;4.808;2023-07-31T09:25:33;11.95;;;2.33;;
81703;SDS011;71117;52.352;4.808;2023-07-31T09:28:08;12.18;;;2.30;;
81703;SDS011;71117;52.352;4.808;2023-07-31T09:30:44;15.15;;;3.03;;
81703;SDS011;71117;52.352;4.808;2023-07-31T09:33:12;11.52;;;3.22;;
81703;SDS011;71117;52.352;4.808;2023-07-31T09:35:38;13.70;;;2.70;;
81703;SDS011;71117;52.352;4.808;2023-07-31T09:38:06;16.63;;;2.67;;
81703;SDS011;71117;52.352;4.808;2023-07-31T09:40:37;17.58;;;2.83;;
81703;SDS011;71117;52.352;4.808;2023-07-31T09:43:13;13.88;;;2.45;;
81703;SDS011;71117;52.352;4.808;2023-07-31T09:45:43;7.40;;;1.67;;
81703;SDS011;71117;52.352;4.808;2023-07-31T09:48:13;21.05;;;2.40;;
81703;SDS011;71117;52.352;4.808;2023-07-31T09:50:47;14.70;;;2.40;;
81703;SDS011;71117;52.352;4.808;2023-07-31T09:53:14;13.98;;;2.20;;
81703;SDS011;71117;52.352;4.808;2023-07-31T09:55:40;13.35;;;2.17;;
81703;SDS011;71117;52.352;4.808;2023-07-31T09:58:08;12.02;;;1.85;;
81703;SDS011;71117;52.352;4.808;2023-07-31T10:00:35;9.30;;;2.15;;
81703;SDS011;71117;52.352;4.808;2023-07-31T10:03:02;15.73;;;2.30;;
81703;SDS011;71117;52.352;4.808;2023-07-31T10:05:30;8.07;;;1.95;;
81703;SDS011;71117;52.352;4.808;2023-07-31T10:07:59;12.32;;;2.47;;
81703;SDS011;71117;52.352;4.808;2023-07-31T10:10:24;10.70;;;2.10;;
81703;SDS011;71117;52.352;4.808;2023-07-31T10:12:54;20.88;;;2.78;;
81703;SDS011;71117;52.352;4.808;2023-07-31T10:15:21;9.98;;;2.15;;
81703;SDS011;71117;52.352;4.808;2023-07-31T10:17:47;10.63;;;2.17;;
81703;SDS011;71117;52.352;4.808;2023-07-31T10:20:14;9.25;;;2.15;;
81703;SDS011;71117;52.352;4.808;2023-07-31T10:22:41;12.95;;;1.92;;
81703;SDS011;71117;52.352;4.808;2023-07-31T10:25:07;6.63;;;2.22;;
81703;SDS011;71117;52.352;4.808;2023-07-31T10:27:34;8.63;;;1.83;;
81703;SDS011;71117;52.352;4.808;2023-07-31T10:30:00;9.88;;;2.92;;
81703;SDS011;71117;52.352;4.808;2023-07-31T10:32:29;8.63;;;2.17;;
81703;SDS011;71117;52.352;4.808;2023-07-31T10:34:55;11.18;;;2.53;;
81703;SDS011;71117;52.352;4.808;2023-07-31T10:37:25;11.73;;;2.63;;
81703;SDS011;71117;52.352;4.808;2023-07-31T10:42:21;10.32;;;2.05;;
81703;SDS011;71117;52.352;4.808;2023-07-31T10:44:55;12.30;;;2.03;;
81703;SDS011;71117;52.352;4.808;2023-07-31T10:47:22;8.27;;;2.13;;
81703;SDS011;71117;52.352;4.808;2023-07-31T10:49:48;10.70;;;2.38;;
81703;SDS011;71117;52.352;4.808;2023-07-31T10:52:13;14.40;;;2.88;;
81703;SDS011;71117;52.352;4.808;2023-07-31T10:54:47;7.40;;;1.98;;
81703;SDS011;71117;52.352;4.808;2023-07-31T10:57:22;7.55;;;2.13;;
81703;SDS011;71117;52.352;4.808;2023-07-31T10:59:48;12.15;;;3.00;;
81703;SDS011;71117;52.352;4.808;2023-07-31T11:02:25;12.52;;;2.60;;
81703;SDS011;71117;52.352;4.808;2023-07-31T11:05:10;10.48;;;2.20;;
81703;SDS011;71117;52.352;4.808;2023-07-31T11:07:48;15.82;;;2.45;;
81703;SDS011;71117;52.352;4.808;2023-07-31T11:10:18;8.38;;;2.20;;
81703;SDS011;71117;52.352;4.808;2023-07-31T11:12:45;11.45;;;2.65;;
81703;SDS011;71117;52.352;4.808;2023-07-31T11:15:11;13.38;;;2.70;;
81703;SDS011;71117;52.352;4.808;2023-07-31T11:17:40;10.50;;;2.60;;
81703;SDS011;71117;52.352;4.808;2023-07-31T11:20:06;9.35;;;2.35;;
81703;SDS011;71117;52.352;4.808;2023-07-31T11:22:35;9.23;;;3.88;;
81703;SDS011;71117;52.352;4.808;2023-07-31T11:25:02;12.43;;;3.10;;
81703;SDS011;71117;52.352;4.808;2023-07-31T11:27:29;10.23;;;2.92;;
81703;SDS011;71117;52.352;4.808;2023-07-31T11:30:00;8.48;;;1.92;;
81703;SDS011;71117;52.352;4.808;2023-07-31T11:32:26;5.63;;;1.67;;
81703;SDS011;71117;52.352;4.808;2023-07-31T11:34:55;7.90;;;1.77;;
81703;SDS011;71117;52.352;4.808;2023-07-31T11:37:20;12.82;;;2.25;;
81703;SDS011;71117;52.352;4.808;2023-07-31T11:39:58;7.07;;;2.00;;
81703;SDS011;71117;52.352;4.808;2023-07-31T11:42:24;11.93;;;2.22;;
81703;SDS011;71117;52.352;4.808;2023-07-31T11:44:50;10.15;;;2.13;;
81703;SDS011;71117;52.352;4.808;2023-07-31T11:47:15;9.07;;;1.90;;
81703;SDS011;71117;52.352;4.808;2023-07-31T11:49:41;9.13;;;1.63;;
81703;SDS011;71117;52.352;4.808;2023-07-31T11:52:08;7.20;;;1.50;;
81703;SDS011;71117;52.352;4.808;2023-07-31T11:54:33;6.38;;;1.60;;
81703;SDS011;71117;52.352;4.808;2023-07-31T11:56:59;8.88;;;2.17;;
81703;SDS011;71117;52.352;4.808;2023-07-31T11:59:26;9.10;;;1.80;;
81703;SDS011;71117;52.352;4.808;2023-07-31T12:01:52;5.93;;;1.88;;
81703;SDS011;71117;52.352;4.808;2023-07-31T12:04:18;7.60;;;2.22;;
81703;SDS011;71117;52.352;4.808;2023-07-31T12:06:46;8.80;;;2.20;;
81703;SDS011;71117;52.352;4.808;2023-07-31T12:09:13;7.90;;;2.40;;
81703;SDS011;71117;52.352;4.808;2023-07-31T12:11:45;7.70;;;2.08;;
81703;SDS011;71117;52.352;4.808;2023-07-31T12:14:19;9.88;;;2.22;;
81703;SDS011;71117;52.352;4.808;2023-07-31T12:16:52;12.75;;;2.05;;
81703;SDS011;71117;52.352;4.808;2023-07-31T12:19:19;9.90;;;2.08;;
81703;SDS011;71117;52.352;4.808;2023-07-31T12:21:44;9.48;;;2.33;;
81703;SDS011;71117;52.352;4.808;2023-07-31T12:24:10;6.88;;;1.88;;
81703;SDS011;71117;52.352;4.808;2023-07-31T12:26:35;5.78;;;1.70;;
81703;SDS011;71117;52.352;4.808;2023-07-31T12:29:00;7.03;;;1.80;;
81703;SDS011;71117;52.352;4.808;2023-07-31T12:31:27;5.32;;;1.58;;
81703;SDS011;71117;52.352;4.808;2023-07-31T12:33:54;6.30;;;1.70;;
81703;SDS011;71117;52.352;4.808;2023-07-31T12:36:21;5.97;;;1.30;;
81703;SDS011;71117;52.352;4.808;2023-07-31T12:38:52;3.75;;;1.23;;
81703;SDS011;71117;52.352;4.808;2023-07-31T12:41:18;7.13;;;2.22;;
81703;SDS011;71117;52.352;4.808;2023-07-31T12:43:43;8.88;;;1.75;;
81703;SDS011;71117;52.352;4.808;2023-07-31T12:46:10;7.95;;;1.30;;
81703;SDS011;71117;52.352;4.808;2023-07-31T12:48:36;6.50;;;1.63;;
81703;SDS011;71117;52.352;4.808;2023-07-31T12:51:02;5.07;;;1.55;;
81703;SDS011;71117;52.352;4.808;2023-07-31T12:53:28;5.85;;;1.80;;
81703;SDS011;71117;52.352;4.808;2023-07-31T12:55:54;5.88;;;1.40;;
81703;SDS011;71117;52.352;4.808;2023-07-31T12:58:20;9.32;;;1.70;;
81703;SDS011;71117;52.352;4.808;2023-07-31T13:00:45;8.88;;;1.65;;
81703;SDS011;71117;52.352;4.808;2023-07-31T13:03:11;4.95;;;1.20;;
81703;SDS011;71117;52.352;4.808;2023-07-31T13:05:36;6.50;;;2.13;;
81703;SDS011;71117;52.352;4.808;2023-07-31T13:08:01;7.55;;;1.50;;
81703;SDS011;71117;52.352;4.808;2023-07-31T13:10:27;8.50;;;1.48;;
81703;SDS011;71117;52.352;4.808;2023-07-31T13:12:53;7.43;;;1.92;;
81703;SDS011;71117;52.352;4.808;2023-07-31T13:15:19;5.13;;;1.40;;
81703;SDS011;71117;52.352;4.808;2023-07-31T13:17:45;5.70;;;1.92;;
81703;SDS011;71117;52.352;4.808;2023-07-31T13:20:11;6.20;;;1.92;;
81703;SDS011;71117;52.352;4.808;2023-07-31T13:22:36;10.30;;;1.60;;
81703;SDS011;71117;52.352;4.808;2023-07-31T13:25:02;7.30;;;1.33;;
81703;SDS011;71117;52.352;4.808;2023-07-31T13:27:28;8.07;;;1.25;;
81703;SDS011;71117;52.352;4.808;2023-07-31T13:29:53;3.83;;;1.20;;
81703;SDS011;71117;52.352;4.808;2023-07-31T13:32:19;4.82;;;1.20;;
81703;SDS011;71117;52.352;4.808;2023-07-31T13:34:45;3.08;;;0.90;;
81703;SDS011;71117;52.352;4.808;2023-07-31T13:37:11;9.95;;;1.23;;
81703;SDS011;71117;52.352;4.808;2023-07-31T13:39:38;3.78;;;0.90;;
81703;SDS011;71117;52.352;4.808;2023-07-31T13:42:04;2.90;;;0.90;;
81703;SDS011;71117;52.352;4.808;2023-07-31T13:44:32;2.13;;;0.82;;
81703;SDS011;71117;52.352;4.808;2023-07-31T13:46:59;5.85;;;0.95;;
81703;SDS011;71117;52.352;4.808;2023-07-31T13:49:25;3.95;;;0.85;;
81703;SDS011;71117;52.352;4.808;2023-07-31T13:51:50;1.27;;;0.52;;
81703;SDS011;71117;52.352;4.808;2023-07-31T13:54:15;1.88;;;0.63;;
81703;SDS011;71117;52.352;4.808;2023-07-31T13:56:42;1.20;;;0.55;;
81703;SDS011;71117;52.352;4.808;2023-07-31T13:59:08;2.50;;;0.70;;
81703;SDS011;71117;52.352;4.808;2023-07-31T14:01:33;2.22;;;0.80;;
81703;SDS011;71117;52.352;4.808;2023-07-31T14:03:58;2.45;;;0.70;;
81703;SDS011;71117;52.352;4.808;2023-07-31T14:06:24;1.20;;;0.73;;
81703;SDS011;71117;52.352;4.808;2023-07-31T14:08:49;5.22;;;1.20;;
81703;SDS011;71117;52.352;4.808;2023-07-31T14:11:15;4.35;;;1.25;;
81703;SDS011;71117;52.352;4.808;2023-07-31T14:13:40;5.82;;;1.40;;
81703;SDS011;71117;52.352;4.808;2023-07-31T14:16:05;6.60;;;1.55;;
81703;SDS011;71117;52.352;4.808;2023-07-31T14:18:31;4.82;;;1.30;;
81703;SDS011;71117;52.352;4.808;2023-07-31T14:20:57;5.03;;;1.42;;
81703;SDS011;71117;52.352;4.808;2023-07-31T14:23:22;6.03;;;1.55;;
81703;SDS011;71117;52.352;4.808;2023-07-31T14:25:47;7.20;;;1.92;;
81703;SDS011;71117;52.352;4.808;2023-07-31T14:28:13;9.13;;;2.08;;
81703;SDS011;71117;52.352;4.808;2023-07-31T14:30:38;8.57;;;2.15;;
81703;SDS011;71117;52.352;4.808;2023-07-31T14:33:03;8.05;;;2.20;;
81703;SDS011;71117;52.352;4.808;2023-07-31T14:35:29;6.38;;;1.98;;
81703;SDS011;71117;52.352;4.808;2023-07-31T14:37:54;10.57;;;2.50;;
81703;SDS011;71117;52.352;4.808;2023-07-31T14:40:19;11.45;;;2.55;;
81703;SDS011;71117;52.352;4.808;2023-07-31T14:42:45;11.85;;;2.50;;
81703;SDS011;71117;52.352;4.808;2023-07-31T14:45:10;7.75;;;2.15;;
81703;SDS011;71117;52.352;4.808;2023-07-31T14:47:36;12.05;;;2.45;;